sensor_id;sensor_type;location;lat;lon;timestamp;P1;durP1;ratioP1;P2;durP2;ratioP2
75916;SDS011;64595;50.148;14.334;2023-06-14T00:01:24;10.82;;;8.13;;
75916;SDS011;64595;50.148;14.334;2023-06-14T00:03:51;9.30;;;7.60;;
75916;SDS011;64595;50.148;14.334;2023-06-14T00:06:17;13.45;;;7.82;;
75916;SDS011;64595;50.148;14.334;2023-06-14T00:08:42;9.38;;;8.30;;
75916;SDS011;64595;50.148;14.334;2023-06-14T00:11:08;9.20;;;8.15;;
75916;SDS011;64595;50.148;14.334;2023-06-14T00:13:33;10.02;;;8.35;;
75916;SDS011;64595;50.148;14.334;2023-06-14T00:15:59;12.20;;;8.68;;
75916;SDS011;64595;50.148;14.334;2023-06-14T00:18:24;10.73;;;8.55;;
75916;SDS011;64595;50.148;14.334;2023-06-14T00:20:51;12.73;;;7.75;;
75916;SDS011;64595;50.148;14.334;2023-06-14T00:23:17;9.85;;;8.85;;
75916;SDS011;64595;50.148;14.334;2023-06-14T00:25:43;8.45;;;6.90;;
75916;SDS011;64595;50.148;14.334;2023-06-14T00:28:08;9.05;;;7.07;;
75916;SDS011;64595;50.148;14.334;2023-06-14T00:30:34;9.35;;;7.20;;
75916;SDS011;64595;50.148;14.334;2023-06-14T00:33:00;8.95;;;6.93;;
75916;SDS011;64595;50.148;14.334;2023-06-14T00:35:26;8.60;;;6.97;;
75916;SDS011;64595;50.148;14.334;2023-06-14T00:37:53;9.25;;;6.60;;
75916;SDS011;64595;50.148;14.334;2023-06-14T00:40:18;8.98;;;7.13;;
75916;SDS011;64595;50.148;14.334;2023-06-14T00:42:44;9.13;;;6.72;;
75916;SDS011;64595;50.148;14.334;2023-06-14T00:45:10;10.77;;;6.68;;
75916;SDS011;64595;50.148;14.334;2023-06-14T00:47:35;10.38;;;7.55;;
75916;SDS011;64595;50.148;14.334;2023-06-14T00:50:01;11.68;;;6.82;;
75916;SDS011;64595;50.148;14.334;2023-06-14T00:52:27;10.85;;;7.07;;
75916;SDS011;64595;50.148;14.334;2023-06-14T00:54:54;8.52;;;6.45;;
75916;SDS011;64595;50.148;14.334;2023-06-14T00:57:20;9.68;;;7.07;;
75916;SDS011;64595;50.148;14.334;2023-06-14T00:59:46;11.95;;;7.25;;
75916;SDS011;64595;50.148;14.334;2023-06-14T01:02:13;10.13;;;7.07;;
75916;SDS011;64595;50.148;14.334;2023-06-14T01:04:39;10.13;;;7.65;;
75916;SDS011;64595;50.148;14.334;2023-06-14T01:07:06;9.60;;;6.82;;
75916;SDS011;64595;50.148;14.334;2023-06-14T01:09:36;10.30;;;6.82;;
75916;SDS011;64595;50.148;14.334;2023-06-14T01:12:09;10.05;;;7.13;;
75916;SDS011;64595;50.148;14.334;2023-06-14T01:14:39;8.90;;;6.57;;
75916;SDS011;64595;50.148;14.334;2023-06-14T01:17:04;12.60;;;7.57;;
75916;SDS011;64595;50.148;14.334;2023-06-14T01:19:30;13.43;;;6.57;;
75916;SDS011;64595;50.148;14.334;2023-06-14T01:21:57;8.68;;;6.53;;
75916;SDS011;64595;50.148;14.334;2023-06-14T01:24:26;10.05;;;7.93;;
75916;SDS011;64595;50.148;14.334;2023-06-14T01:26:52;10.98;;;7.88;;
75916;SDS011;64595;50.148;14.334;2023-06-14T01:29:18;10.02;;;7.13;;
75916;SDS011;64595;50.148;14.334;2023-06-14T01:31:44;9.38;;;7.43;;
75916;SDS011;64595;50.148;14.334;2023-06-14T01:34:09;13.00;;;7.05;;
75916;SDS011;64595;50.148;14.334;2023-06-14T01:36:35;10.73;;;7.45;;
75916;SDS011;64595;50.148;14.334;2023-06-14T01:39:01;9.93;;;7.00;;
75916;SDS011;64595;50.148;14.334;2023-06-14T01:41:29;10.15;;;7.63;;
75916;SDS011;64595;50.148;14.334;2023-06-14T01:43:55;13.40;;;7.50;;
75916;SDS011;64595;50.148;14.334;2023-06-14T01:46:21;9.55;;;7.78;;
75916;SDS011;64595;50.148;14.334;2023-06-14T01:48:47;8.68;;;6.60;;
75916;SDS011;64595;50.148;14.334;2023-06-14T01:51:13;8.70;;;6.85;;
75916;SDS011;64595;50.148;14.334;2023-06-14T01:53:38;11.25;;;7.90;;
75916;SDS011;64595;50.148;14.334;2023-06-14T01:56:04;12.45;;;7.82;;
75916;SDS011;64595;50.148;14.334;2023-06-14T01:58:31;9.82;;;7.45;;
75916;SDS011;64595;50.148;14.334;2023-06-14T02:00:56;14.98;;;8.60;;
75916;SDS011;64595;50.148;14.334;2023-06-14T02:03:22;10.80;;;8.38;;
75916;SDS011;64595;50.148;14.334;2023-06-14T02:05:47;8.60;;;7.13;;
75916;SDS011;64595;50.148;14.334;2023-06-14T02:08:13;12.90;;;8.30;;
75916;SDS011;64595;50.148;14.334;2023-06-14T02:10:38;9.90;;;7.50;;
75916;SDS011;64595;50.148;14.334;2023-06-14T02:13:04;14.80;;;8.35;;
75916;SDS011;64595;50.148;14.334;2023-06-14T02:15:31;11.05;;;7.20;;
75916;SDS011;64595;50.148;14.334;2023-06-14T02:17:56;12.43;;;8.40;;
75916;SDS011;64595;50.148;14.334;2023-06-14T02:20:22;9.82;;;7.32;;
75916;SDS011;64595;50.148;14.334;2023-06-14T02:22:47;14.38;;;8.60;;
75916;SDS011;64595;50.148;14.334;2023-06-14T02:25:13;12.07;;;8.90;;
75916;SDS011;64595;50.148;14.334;2023-06-14T02:27:38;10.98;;;8.00;;
75916;SDS011;64595;50.148;14.334;2023-06-14T02:30:04;11.45;;;8.25;;
75916;SDS011;64595;50.148;14.334;2023-06-14T02:32:32;16.65;;;8.90;;
75916;SDS011;64595;50.148;14.334;2023-06-14T02:34:57;13.68;;;9.07;;
75916;SDS011;64595;50.148;14.334;2023-06-14T02:37:23;14.38;;;9.23;;
75916;SDS011;64595;50.148;14.334;2023-06-14T02:39:48;12.75;;;9.02;;
75916;SDS011;64595;50.148;14.334;2023-06-14T02:42:14;16.02;;;10.00;;
75916;SDS011;64595;50.148;14.334;2023-06-14T02:44:39;12.38;;;9.13;;
75916;SDS011;64595;50.148;14.334;2023-06-14T02:47:05;13.48;;;9.18;;
75916;SDS011;64595;50.148;14.334;2023-06-14T02:49:32;12.85;;;8.77;;
75916;SDS011;64595;50.148;14.334;2023-06-14T02:51:58;16.25;;;10.45;;
75916;SDS011;64595;50.148;14.334;2023-06-14T02:54:23;12.48;;;8.68;;
75916;SDS011;64595;50.148;14.334;2023-06-14T02:56:49;14.38;;;10.45;;
75916;SDS011;64595;50.148;14.334;2023-06-14T02:59:14;13.90;;;10.20;;
75916;SDS011;64595;50.148;14.334;2023-06-14T03:01:40;18.95;;;11.18;;
75916;SDS011;64595;50.148;14.334;2023-06-14T03:04:05;16.50;;;11.50;;
75916;SDS011;64595;50.148;14.334;2023-06-14T03:06:32;19.27;;;11.82;;
75916;SDS011;64595;50.148;14.334;2023-06-14T03:08:58;17.27;;;11.65;;
75916;SDS011;64595;50.148;14.334;2023-06-14T03:11:24;18.73;;;12.30;;
75916;SDS011;64595;50.148;14.334;2023-06-14T03:13:49;17.65;;;12.90;;
75916;SDS011;64595;50.148;14.334;2023-06-14T03:16:15;14.75;;;11.55;;
75916;SDS011;64595;50.148;14.334;2023-06-14T03:18:40;16.85;;;11.18;;
75916;SDS011;64595;50.148;14.334;2023-06-14T03:21:06;18.92;;;11.98;;
75916;SDS011;64595;50.148;14.334;2023-06-14T03:23:32;18.35;;;12.18;;
75916;SDS011;64595;50.148;14.334;2023-06-14T03:25:58;18.42;;;12.93;;
75916;SDS011;64595;50.148;14.334;2023-06-14T03:28:23;19.45;;;12.25;;
75916;SDS011;64595;50.148;14.334;2023-06-14T03:30:49;23.17;;;14.00;;
75916;SDS011;64595;50.148;14.334;2023-06-14T03:33:14;23.38;;;14.00;;
75916;SDS011;64595;50.148;14.334;2023-06-14T03:35:40;22.85;;;15.77;;
75916;SDS011;64595;50.148;14.334;2023-06-14T03:38:05;20.88;;;14.05;;
75916;SDS011;64595;50.148;14.334;2023-06-14T03:40:32;19.88;;;13.35;;
75916;SDS011;64595;50.148;14.334;2023-06-14T03:42:58;22.85;;;14.57;;
75916;SDS011;64595;50.148;14.334;2023-06-14T03:45:23;20.60;;;14.35;;
75916;SDS011;64595;50.148;14.334;2023-06-14T03:47:49;21.02;;;13.57;;
75916;SDS011;64595;50.148;14.334;2023-06-14T03:50:14;23.25;;;14.35;;
75916;SDS011;64595;50.148;14.334;2023-06-14T03:52:40;24.88;;;15.80;;
75916;SDS011;64595;50.148;14.334;2023-06-14T03:55:06;23.92;;;16.25;;
75916;SDS011;64595;50.148;14.334;2023-06-14T03:57:33;27.00;;;17.25;;
75916;SDS011;64595;50.148;14.334;2023-06-14T03:59:58;26.33;;;15.98;;
75916;SDS011;64595;50.148;14.334;2023-06-14T04:02:24;22.75;;;16.45;;
75916;SDS011;64595;50.148;14.334;2023-06-14T04:04:49;23.55;;;15.40;;
75916;SDS011;64595;50.148;14.334;2023-06-14T04:07:15;21.17;;;14.85;;
75916;SDS011;64595;50.148;14.334;2023-06-14T04:09:41;22.80;;;16.10;;
75916;SDS011;64595;50.148;14.334;2023-06-14T04:12:07;23.45;;;15.23;;
75916;SDS011;64595;50.148;14.334;2023-06-14T04:14:34;23.40;;;15.40;;
75916;SDS011;64595;50.148;14.334;2023-06-14T04:17:00;21.52;;;15.10;;
75916;SDS011;64595;50.148;14.334;2023-06-14T04:19:26;21.95;;;15.02;;
75916;SDS011;64595;50.148;14.334;2023-06-14T04:21:51;23.08;;;15.23;;
75916;SDS011;64595;50.148;14.334;2023-06-14T04:24:17;21.42;;;15.10;;
75916;SDS011;64595;50.148;14.334;2023-06-14T04:26:43;22.05;;;15.13;;
75916;SDS011;64595;50.148;14.334;2023-06-14T04:29:09;17.92;;;14.18;;
75916;SDS011;64595;50.148;14.334;2023-06-14T04:31:36;19.33;;;13.85;;
75916;SDS011;64595;50.148;14.334;2023-06-14T04:34:01;24.80;;;14.80;;
75916;SDS011;64595;50.148;14.334;2023-06-14T04:36:27;16.38;;;12.48;;
75916;SDS011;64595;50.148;14.334;2023-06-14T04:38:52;18.38;;;14.18;;
75916;SDS011;64595;50.148;14.334;2023-06-14T04:41:18;16.95;;;13.80;;
75916;SDS011;64595;50.148;14.334;2023-06-14T04:43:50;13.75;;;11.45;;
75916;SDS011;64595;50.148;14.334;2023-06-14T04:46:15;15.95;;;12.30;;
75916;SDS011;64595;50.148;14.334;2023-06-14T04:48:43;16.08;;;11.50;;
75916;SDS011;64595;50.148;14.334;2023-06-14T04:51:10;14.73;;;11.32;;
75916;SDS011;64595;50.148;14.334;2023-06-14T04:53:36;15.93;;;11.88;;
75916;SDS011;64595;50.148;14.334;2023-06-14T04:56:01;14.95;;;11.68;;
75916;SDS011;64595;50.148;14.334;2023-06-14T04:58:27;15.25;;;12.00;;
75916;SDS011;64595;50.148;14.334;2023-06-14T05:00:52;14.65;;;11.02;;
75916;SDS011;64595;50.148;14.334;2023-06-14T05:03:18;17.10;;;11.48;;
75916;SDS011;64595;50.148;14.334;2023-06-14T05:05:45;15.00;;;11.63;;
75916;SDS011;64595;50.148;14.334;2023-06-14T05:08:10;14.23;;;10.15;;
75916;SDS011;64595;50.148;14.334;2023-06-14T05:10:36;12.68;;;9.63;;
75916;SDS011;64595;50.148;14.334;2023-06-14T05:13:02;13.77;;;10.20;;
75916;SDS011;64595;50.148;14.334;2023-06-14T05:15:27;9.57;;;8.43;;
75916;SDS011;64595;50.148;14.334;2023-06-14T05:17:53;10.23;;;7.13;;
75916;SDS011;64595;50.148;14.334;2023-06-14T05:20:18;11.70;;;8.15;;
75916;SDS011;64595;50.148;14.334;2023-06-14T05:22:45;10.13;;;8.20;;
75916;SDS011;64595;50.148;14.334;2023-06-14T05:25:11;10.23;;;8.02;;
75916;SDS011;64595;50.148;14.334;2023-06-14T05:27:36;7.70;;;6.47;;
75916;SDS011;64595;50.148;14.334;2023-06-14T05:30:02;8.48;;;7.03;;
75916;SDS011;64595;50.148;14.334;2023-06-14T05:32:28;7.80;;;6.95;;
75916;SDS011;64595;50.148;14.334;2023-06-14T05:34:54;8.52;;;6.65;;
75916;SDS011;64595;50.148;14.334;2023-06-14T05:37:19;7.55;;;5.30;;
75916;SDS011;64595;50.148;14.334;2023-06-14T05:39:46;7.47;;;6.35;;
75916;SDS011;64595;50.148;14.334;2023-06-14T05:42:12;7.03;;;6.13;;
75916;SDS011;64595;50.148;14.334;2023-06-14T05:44:37;7.72;;;5.88;;
75916;SDS011;64595;50.148;14.334;2023-06-14T05:47:03;8.07;;;6.47;;
75916;SDS011;64595;50.148;14.334;2023-06-14T05:49:37;8.15;;;6.70;;
75916;SDS011;64595;50.148;14.334;2023-06-14T05:52:02;7.78;;;5.93;;
75916;SDS011;64595;50.148;14.334;2023-06-14T05:54:28;8.40;;;6.55;;
75916;SDS011;64595;50.148;14.334;2023-06-14T05:56:55;8.20;;;5.88;;
75916;SDS011;64595;50.148;14.334;2023-06-14T05:59:21;9.05;;;7.03;;
75916;SDS011;64595;50.148;14.334;2023-06-14T06:01:46;8.43;;;6.60;;
75916;SDS011;64595;50.148;14.334;2023-06-14T06:04:12;9.30;;;7.05;;
75916;SDS011;64595;50.148;14.334;2023-06-14T06:06:38;8.27;;;6.88;;
75916;SDS011;64595;50.148;14.334;2023-06-14T06:09:03;8.98;;;6.00;;
75916;SDS011;64595;50.148;14.334;2023-06-14T06:11:29;9.23;;;6.30;;
75916;SDS011;64595;50.148;14.334;2023-06-14T06:13:55;9.25;;;6.63;;
75916;SDS011;64595;50.148;14.334;2023-06-14T06:16:21;14.13;;;7.55;;
75916;SDS011;64595;50.148;14.334;2023-06-14T06:18:46;8.90;;;6.68;;
75916;SDS011;64595;50.148;14.334;2023-06-14T06:21:14;9.45;;;6.88;;
75916;SDS011;64595;50.148;14.334;2023-06-14T06:23:39;8.32;;;7.20;;
75916;SDS011;64595;50.148;14.334;2023-06-14T06:26:05;9.80;;;6.75;;
75916;SDS011;64595;50.148;14.334;2023-06-14T06:28:30;9.13;;;6.15;;
75916;SDS011;64595;50.148;14.334;2023-06-14T06:30:57;7.70;;;6.32;;
75916;SDS011;64595;50.148;14.334;2023-06-14T06:33:22;7.68;;;6.25;;
75916;SDS011;64595;50.148;14.334;2023-06-14T06:35:48;8.60;;;6.90;;
75916;SDS011;64595;50.148;14.334;2023-06-14T06:38:13;9.35;;;6.57;;
75916;SDS011;64595;50.148;14.334;2023-06-14T06:40:39;9.68;;;6.63;;
75916;SDS011;64595;50.148;14.334;2023-06-14T06:43:04;7.93;;;6.53;;
75916;SDS011;64595;50.148;14.334;2023-06-14T06:45:30;10.07;;;5.57;;
75916;SDS011;64595;50.148;14.334;2023-06-14T06:47:57;13.73;;;5.80;;
75916;SDS011;64595;50.148;14.334;2023-06-14T06:50:23;7.68;;;6.68;;
75916;SDS011;64595;50.148;14.334;2023-06-14T06:52:48;7.28;;;6.30;;
75916;SDS011;64595;50.148;14.334;2023-06-14T06:55:14;6.15;;;4.75;;
75916;SDS011;64595;50.148;14.334;2023-06-14T06:57:39;6.40;;;5.05;;
75916;SDS011;64595;50.148;14.334;2023-06-14T07:00:05;8.02;;;4.45;;
75916;SDS011;64595;50.148;14.334;2023-06-14T07:02:32;11.25;;;6.40;;
75916;SDS011;64595;50.148;14.334;2023-06-14T07:04:58;7.80;;;6.03;;
75916;SDS011;64595;50.148;14.334;2023-06-14T07:07:24;7.15;;;5.47;;
75916;SDS011;64595;50.148;14.334;2023-06-14T07:09:49;7.85;;;5.75;;
75916;SDS011;64595;50.148;14.334;2023-06-14T07:12:15;6.93;;;5.35;;
75916;SDS011;64595;50.148;14.334;2023-06-14T07:14:41;7.00;;;5.13;;
75916;SDS011;64595;50.148;14.334;2023-06-14T07:17:06;8.15;;;5.18;;
75916;SDS011;64595;50.148;14.334;2023-06-14T07:19:32;5.95;;;5.03;;
75916;SDS011;64595;50.148;14.334;2023-06-14T07:21:58;7.32;;;5.32;;
75916;SDS011;64595;50.148;14.334;2023-06-14T07:24:24;9.70;;;5.47;;
75916;SDS011;64595;50.148;14.334;2023-06-14T07:26:50;9.55;;;5.22;;
75916;SDS011;64595;50.148;14.334;2023-06-14T07:29:15;7.00;;;4.88;;
75916;SDS011;64595;50.148;14.334;2023-06-14T07:31:41;9.27;;;5.57;;
75916;SDS011;64595;50.148;14.334;2023-06-14T07:34:06;6.63;;;5.35;;
75916;SDS011;64595;50.148;14.334;2023-06-14T07:36:32;6.53;;;5.88;;
75916;SDS011;64595;50.148;14.334;2023-06-14T07:38:58;10.13;;;5.93;;
75916;SDS011;64595;50.148;14.334;2023-06-14T07:41:24;8.32;;;6.07;;
75916;SDS011;64595;50.148;14.334;2023-06-14T07:43:49;7.80;;;5.75;;
75916;SDS011;64595;50.148;14.334;2023-06-14T07:46:15;8.95;;;5.72;;
75916;SDS011;64595;50.148;14.334;2023-06-14T07:48:40;7.28;;;5.20;;
75916;SDS011;64595;50.148;14.334;2023-06-14T07:51:06;9.63;;;5.10;;
75916;SDS011;64595;50.148;14.334;2023-06-14T07:53:32;7.70;;;5.38;;
75916;SDS011;64595;50.148;14.334;2023-06-14T07:55:58;6.15;;;4.82;;
75916;SDS011;64595;50.148;14.334;2023-06-14T07:58:24;5.88;;;4.55;;
75916;SDS011;64595;50.148;14.334;2023-06-14T08:00:50;9.05;;;4.93;;
75916;SDS011;64595;50.148;14.334;2023-06-14T08:03:15;7.40;;;5.35;;
75916;SDS011;64595;50.148;14.334;2023-06-14T08:05:41;9.40;;;4.80;;
75916;SDS011;64595;50.148;14.334;2023-06-14T08:08:06;10.25;;;5.20;;
75916;SDS011;64595;50.148;14.334;2023-06-14T08:10:32;6.35;;;5.00;;
75916;SDS011;64595;50.148;14.334;2023-06-14T08:12:59;6.00;;;4.70;;
75916;SDS011;64595;50.148;14.334;2023-06-14T08:15:24;6.65;;;4.93;;
75916;SDS011;64595;50.148;14.334;2023-06-14T08:17:50;7.00;;;5.22;;
75916;SDS011;64595;50.148;14.334;2023-06-14T08:20:15;9.07;;;5.55;;
75916;SDS011;64595;50.148;14.334;2023-06-14T08:22:41;9.32;;;4.97;;
75916;SDS011;64595;50.148;14.334;2023-06-14T08:25:06;7.85;;;5.60;;
75916;SDS011;64595;50.148;14.334;2023-06-14T08:27:33;7.03;;;5.22;;
75916;SDS011;64595;50.148;14.334;2023-06-14T08:29:59;9.18;;;5.78;;
75916;SDS011;64595;50.148;14.334;2023-06-14T08:32:25;5.78;;;5.03;;
75916;SDS011;64595;50.148;14.334;2023-06-14T08:34:50;6.93;;;5.63;;
75916;SDS011;64595;50.148;14.334;2023-06-14T08:37:16;10.70;;;5.68;;
75916;SDS011;64595;50.148;14.334;2023-06-14T08:39:41;10.73;;;5.97;;
75916;SDS011;64595;50.148;14.334;2023-06-14T08:42:07;7.05;;;5.20;;
75916;SDS011;64595;50.148;14.334;2023-06-14T08:44:34;8.95;;;5.65;;
75916;SDS011;64595;50.148;14.334;2023-06-14T08:47:01;9.65;;;5.88;;
75916;SDS011;64595;50.148;14.334;2023-06-14T08:49:26;7.07;;;5.22;;
75916;SDS011;64595;50.148;14.334;2023-06-14T08:51:53;5.63;;;4.63;;
75916;SDS011;64595;50.148;14.334;2023-06-14T08:54:21;7.97;;;4.90;;
75916;SDS011;64595;50.148;14.334;2023-06-14T08:56:47;6.70;;;5.32;;
75916;SDS011;64595;50.148;14.334;2023-06-14T08:59:12;11.35;;;5.20;;
75916;SDS011;64595;50.148;14.334;2023-06-14T09:01:38;6.78;;;5.15;;
75916;SDS011;64595;50.148;14.334;2023-06-14T09:04:06;8.35;;;5.22;;
75916;SDS011;64595;50.148;14.334;2023-06-14T09:06:32;7.90;;;4.57;;
75916;SDS011;64595;50.148;14.334;2023-06-14T09:08:57;6.00;;;4.93;;
75916;SDS011;64595;50.148;14.334;2023-06-14T09:11:23;6.97;;;4.40;;
75916;SDS011;64595;50.148;14.334;2023-06-14T09:13:49;5.35;;;4.63;;
75916;SDS011;64595;50.148;14.334;2023-06-14T09:16:14;6.05;;;5.38;;
75916;SDS011;64595;50.148;14.334;2023-06-14T09:18:41;6.47;;;5.03;;
75916;SDS011;64595;50.148;14.334;2023-06-14T09:21:08;6.18;;;5.05;;
75916;SDS011;64595;50.148;14.334;2023-06-14T09:23:36;7.13;;;5.07;;
75916;SDS011;64595;50.148;14.334;2023-06-14T09:26:02;7.82;;;4.97;;
75916;SDS011;64595;50.148;14.334;2023-06-14T09:28:31;6.18;;;4.78;;
75916;SDS011;64595;50.148;14.334;2023-06-14T09:30:57;5.53;;;4.65;;
75916;SDS011;64595;50.148;14.334;2023-06-14T09:33:22;6.03;;;5.13;;
75916;SDS011;64595;50.148;14.334;2023-06-14T09:35:50;6.25;;;5.38;;
75916;SDS011;64595;50.148;14.334;2023-06-14T09:38:17;10.13;;;5.85;;
75916;SDS011;64595;50.148;14.334;2023-06-14T09:40:43;7.85;;;5.10;;
75916;SDS011;64595;50.148;14.334;2023-06-14T09:43:08;7.00;;;5.45;;
75916;SDS011;64595;50.148;14.334;2023-06-14T09:45:34;6.50;;;4.80;;
75916;SDS011;64595;50.148;14.334;2023-06-14T09:51:05;9.27;;;5.65;;
75916;SDS011;64595;50.148;14.334;2023-06-14T09:53:33;7.68;;;6.10;;
75916;SDS011;64595;50.148;14.334;2023-06-14T09:56:00;6.10;;;5.22;;
75916;SDS011;64595;50.148;14.334;2023-06-14T09:58:26;6.88;;;5.55;;
75916;SDS011;64595;50.148;14.334;2023-06-14T10:03:21;6.83;;;5.00;;
75916;SDS011;64595;50.148;14.334;2023-06-14T10:05:49;6.45;;;5.50;;
75916;SDS011;64595;50.148;14.334;2023-06-14T10:08:16;8.70;;;5.10;;
75916;SDS011;64595;50.148;14.334;2023-06-14T10:10:45;5.30;;;4.80;;
75916;SDS011;64595;50.148;14.334;2023-06-14T10:13:14;8.63;;;5.43;;
75916;SDS011;64595;50.148;14.334;2023-06-14T10:15:41;8.07;;;5.15;;
75916;SDS011;64595;50.148;14.334;2023-06-14T10:18:14;6.18;;;5.15;;
75916;SDS011;64595;50.148;14.334;2023-06-14T10:20:45;9.13;;;4.70;;
75916;SDS011;64595;50.148;14.334;2023-06-14T10:23:16;6.78;;;5.20;;
75916;SDS011;64595;50.148;14.334;2023-06-14T10:25:45;6.88;;;4.90;;
75916;SDS011;64595;50.148;14.334;2023-06-14T10:28:19;5.50;;;4.72;;
75916;SDS011;64595;50.148;14.334;2023-06-14T10:33:35;6.25;;;5.30;;
75916;SDS011;64595;50.148;14.334;2023-06-14T10:36:08;5.25;;;4.53;;
75916;SDS011;64595;50.148;14.334;2023-06-14T10:38:36;4.70;;;4.13;;
75916;SDS011;64595;50.148;14.334;2023-06-14T10:41:08;5.45;;;4.40;;
75916;SDS011;64595;50.148;14.334;2023-06-14T10:43:40;5.53;;;4.20;;
75916;SDS011;64595;50.148;14.334;2023-06-14T10:46:16;5.95;;;4.25;;
75916;SDS011;64595;50.148;14.334;2023-06-14T10:48:43;5.00;;;4.10;;
75916;SDS011;64595;50.148;14.334;2023-06-14T10:51:17;6.07;;;4.45;;
75916;SDS011;64595;50.148;14.334;2023-06-14T10:53:43;5.82;;;4.80;;
75916;SDS011;64595;50.148;14.334;2023-06-14T10:56:10;5.22;;;4.20;;
75916;SDS011;64595;50.148;14.334;2023-06-14T10:58:48;5.47;;;4.10;;
75916;SDS011;64595;50.148;14.334;2023-06-14T11:01:13;5.10;;;4.63;;
75916;SDS011;64595;50.148;14.334;2023-06-14T11:03:50;5.45;;;4.57;;
75916;SDS011;64595;50.148;14.334;2023-06-14T11:06:16;6.43;;;4.15;;
75916;SDS011;64595;50.148;14.334;2023-06-14T11:11:46;5.30;;;4.72;;
75916;SDS011;64595;50.148;14.334;2023-06-14T11:14:13;6.20;;;4.95;;
75916;SDS011;64595;50.148;14.334;2023-06-14T11:16:38;4.95;;;4.45;;
75916;SDS011;64595;50.148;14.334;2023-06-14T11:19:05;6.68;;;4.72;;
75916;SDS011;64595;50.148;14.334;2023-06-14T11:21:31;6.85;;;5.00;;
75916;SDS011;64595;50.148;14.334;2023-06-14T11:26:26;5.47;;;4.70;;
75916;SDS011;64595;50.148;14.334;2023-06-14T11:28:54;5.85;;;4.70;;
75916;SDS011;64595;50.148;14.334;2023-06-14T11:31:20;5.55;;;4.38;;
75916;SDS011;64595;50.148;14.334;2023-06-14T11:33:49;6.43;;;4.72;;
75916;SDS011;64595;50.148;14.334;2023-06-14T11:36:15;6.50;;;4.93;;
75916;SDS011;64595;50.148;14.334;2023-06-14T11:38:40;7.35;;;5.13;;
75916;SDS011;64595;50.148;14.334;2023-06-14T11:41:06;6.32;;;4.60;;
75916;SDS011;64595;50.148;14.334;2023-06-14T11:43:31;5.28;;;4.00;;
75916;SDS011;64595;50.148;14.334;2023-06-14T11:45:58;5.43;;;4.00;;
75916;SDS011;64595;50.148;14.334;2023-06-14T11:48:35;5.53;;;4.40;;
75916;SDS011;64595;50.148;14.334;2023-06-14T11:51:01;5.97;;;4.05;;
75916;SDS011;64595;50.148;14.334;2023-06-14T11:53:26;6.30;;;4.07;;
75916;SDS011;64595;50.148;14.334;2023-06-14T11:55:52;5.78;;;4.07;;
75916;SDS011;64595;50.148;14.334;2023-06-14T11:58:18;4.97;;;3.80;;
75916;SDS011;64595;50.148;14.334;2023-06-14T12:00:43;6.45;;;4.15;;
75916;SDS011;64595;50.148;14.334;2023-06-14T12:03:10;4.70;;;4.30;;
75916;SDS011;64595;50.148;14.334;2023-06-14T12:05:36;5.65;;;4.07;;
75916;SDS011;64595;50.148;14.334;2023-06-14T12:08:03;5.38;;;4.13;;
75916;SDS011;64595;50.148;14.334;2023-06-14T12:10:29;4.20;;;3.78;;
75916;SDS011;64595;50.148;14.334;2023-06-14T12:12:56;5.20;;;3.90;;
75916;SDS011;64595;50.148;14.334;2023-06-14T12:15:22;5.65;;;4.70;;
75916;SDS011;64595;50.148;14.334;2023-06-14T12:17:48;6.18;;;3.83;;
75916;SDS011;64595;50.148;14.334;2023-06-14T12:20:16;5.35;;;4.30;;
75916;SDS011;64595;50.148;14.334;2023-06-14T12:22:50;5.70;;;4.13;;
75916;SDS011;64595;50.148;14.334;2023-06-14T12:25:26;5.72;;;3.95;;
75916;SDS011;64595;50.148;14.334;2023-06-14T12:27:52;5.38;;;4.32;;
75916;SDS011;64595;50.148;14.334;2023-06-14T12:30:18;5.57;;;4.20;;
75916;SDS011;64595;50.148;14.334;2023-06-14T12:32:44;6.28;;;4.32;;
75916;SDS011;64595;50.148;14.334;2023-06-14T12:35:09;5.10;;;4.40;;
75916;SDS011;64595;50.148;14.334;2023-06-14T12:37:36;6.40;;;3.90;;
75916;SDS011;64595;50.148;14.334;2023-06-14T12:40:02;6.25;;;4.35;;
75916;SDS011;64595;50.148;14.334;2023-06-14T12:42:27;4.97;;;4.25;;
75916;SDS011;64595;50.148;14.334;2023-06-14T12:44:53;5.25;;;4.75;;
75916;SDS011;64595;50.148;14.334;2023-06-14T12:47:18;5.78;;;4.03;;
75916;SDS011;64595;50.148;14.334;2023-06-14T12:49:44;4.78;;;4.13;;
75916;SDS011;64595;50.148;14.334;2023-06-14T12:52:09;4.90;;;4.15;;
75916;SDS011;64595;50.148;14.334;2023-06-14T12:54:36;7.00;;;4.80;;
75916;SDS011;64595;50.148;14.334;2023-06-14T12:57:02;6.35;;;4.80;;
75916;SDS011;64595;50.148;14.334;2023-06-14T12:59:28;5.55;;;4.32;;
75916;SDS011;64595;50.148;14.334;2023-06-14T13:01:53;4.47;;;3.97;;
75916;SDS011;64595;50.148;14.334;2023-06-14T13:04:19;8.88;;;4.65;;
75916;SDS011;64595;50.148;14.334;2023-06-14T13:06:44;6.25;;;4.85;;
75916;SDS011;64595;50.148;14.334;2023-06-14T13:09:10;5.65;;;5.05;;
75916;SDS011;64595;50.148;14.334;2023-06-14T13:11:36;6.30;;;4.57;;
75916;SDS011;64595;50.148;14.334;2023-06-14T13:14:02;4.85;;;3.80;;
75916;SDS011;64595;50.148;14.334;2023-06-14T13:16:27;4.57;;;4.13;;
75916;SDS011;64595;50.148;14.334;2023-06-14T13:18:53;5.80;;;4.30;;
75916;SDS011;64595;50.148;14.334;2023-06-14T13:21:18;4.95;;;4.00;;
75916;SDS011;64595;50.148;14.334;2023-06-14T13:23:44;5.28;;;4.78;;
75916;SDS011;64595;50.148;14.334;2023-06-14T13:26:09;5.82;;;3.97;;
75916;SDS011;64595;50.148;14.334;2023-06-14T13:28:38;4.70;;;3.83;;
75916;SDS011;64595;50.148;14.334;2023-06-14T13:31:03;6.00;;;3.85;;
75916;SDS011;64595;50.148;14.334;2023-06-14T13:33:29;4.50;;;3.90;;
75916;SDS011;64595;50.148;14.334;2023-06-14T13:35:54;5.28;;;4.05;;
75916;SDS011;64595;50.148;14.334;2023-06-14T13:38:20;4.78;;;3.70;;
75916;SDS011;64595;50.148;14.334;2023-06-14T13:40:45;7.03;;;3.88;;
75916;SDS011;64595;50.148;14.334;2023-06-14T13:43:11;4.82;;;3.75;;
75916;SDS011;64595;50.148;14.334;2023-06-14T13:45:37;7.70;;;3.83;;
75916;SDS011;64595;50.148;14.334;2023-06-14T13:50:28;5.38;;;3.70;;
75916;SDS011;64595;50.148;14.334;2023-06-14T13:52:54;7.72;;;4.45;;
75916;SDS011;64595;50.148;14.334;2023-06-14T13:55:19;6.32;;;4.05;;
75916;SDS011;64595;50.148;14.334;2023-06-14T13:57:45;7.05;;;4.00;;
75916;SDS011;64595;50.148;14.334;2023-06-14T14:00:11;5.47;;;4.22;;
75916;SDS011;64595;50.148;14.334;2023-06-14T14:02:39;5.47;;;4.00;;
75916;SDS011;64595;50.148;14.334;2023-06-14T14:05:04;5.63;;;4.30;;
75916;SDS011;64595;50.148;14.334;2023-06-14T14:07:30;4.82;;;3.75;;
75916;SDS011;64595;50.148;14.334;2023-06-14T14:09:56;7.68;;;4.30;;
75916;SDS011;64595;50.148;14.334;2023-06-14T14:12:21;6.95;;;4.28;;
75916;SDS011;64595;50.148;14.334;2023-06-14T14:14:47;7.45;;;4.40;;
75916;SDS011;64595;50.148;14.334;2023-06-14T14:17:12;6.57;;;4.05;;
75916;SDS011;64595;50.148;14.334;2023-06-14T14:19:39;4.65;;;3.63;;
75916;SDS011;64595;50.148;14.334;2023-06-14T14:22:05;5.82;;;4.05;;
75916;SDS011;64595;50.148;14.334;2023-06-14T14:24:30;6.95;;;4.10;;
75916;SDS011;64595;50.148;14.334;2023-06-14T14:26:56;6.68;;;4.00;;
75916;SDS011;64595;50.148;14.334;2023-06-14T14:29:21;6.97;;;4.20;;
75916;SDS011;64595;50.148;14.334;2023-06-14T14:31:47;4.88;;;4.07;;
75916;SDS011;64595;50.148;14.334;2023-06-14T14:34:13;5.47;;;4.45;;
75916;SDS011;64595;50.148;14.334;2023-06-14T14:36:39;5.82;;;4.13;;
75916;SDS011;64595;50.148;14.334;2023-06-14T14:39:05;6.70;;;4.05;;